Chengshantou, China
Current Conditions -  °F | °C
As of 6:30 AM on Tuesday 27 Jan 2015 (Local Time) from ZYTL Reporting Station
Clear Clear  
Wind Chill:   Ceiling: Unl
Heat Index: 16°   Visibility: 6mi
Dew Point: -2°   Wind: 16mph
Humidity: 45%   Direction: 360°N
Pressure: 30.53"   Gusts: NA
Location:  37.4°N, 122.68°E
Report Text: ZYTL 262230Z 36007MPS CAVOK M09/M19 Q1034 NOSIG
Loading
Personal Weather Stations






























Interactive Weather Map New forecast layout! Learn more

10-Day Weather Forecast

Advertisements
Track Severe Weather on mobile